createdAt,value
2019-05-05T00:00:28.956Z,8.60
2019-05-05T00:02:59.431Z,8.60
2019-05-05T00:05:35.735Z,8.50
2019-05-05T00:08:05.202Z,8.50
2019-05-05T00:10:35.536Z,8.40
2019-05-05T00:13:15.224Z,8.30
2019-05-05T00:15:45.494Z,8.30
2019-05-05T00:18:14.870Z,8.20
2019-05-05T00:20:44.661Z,8.20
2019-05-05T00:23:14.585Z,8.30
2019-05-05T00:25:44.728Z,8.30
2019-05-05T00:28:14.310Z,8.30
2019-05-05T00:30:44.859Z,8.20
2019-05-05T00:33:14.508Z,8.20
2019-05-05T00:35:45.114Z,8.20
2019-05-05T00:38:14.396Z,8.20
2019-05-05T00:40:44.298Z,8.10
2019-05-05T00:43:14.760Z,8.20
2019-05-05T00:45:45.503Z,8.20
2019-05-05T00:48:18.790Z,8.20
2019-05-05T00:50:47.859Z,8.20
2019-05-05T00:53:16.764Z,8.20
2019-05-05T00:55:45.747Z,8.10
2019-05-05T00:58:14.531Z,8.20
2019-05-05T01:00:47.482Z,8.20
2019-05-05T01:03:16.988Z,8.10
2019-05-05T01:05:56.159Z,8.10
2019-05-05T01:08:26.418Z,8.10
2019-05-05T01:10:55.122Z,8.10
2019-05-05T01:13:24.579Z,8.00
2019-05-05T01:15:54.230Z,8.00
2019-05-05T01:18:24.587Z,8.00
2019-05-05T01:20:55.228Z,8.10
2019-05-05T01:23:24.447Z,8.10
2019-05-05T01:25:54.489Z,8.10
2019-05-05T01:28:24.931Z,8.10
2019-05-05T01:30:55.385Z,8.00
2019-05-05T01:33:25.646Z,8.00
2019-05-05T01:35:55.242Z,7.90
2019-05-05T01:38:28.370Z,7.90
2019-05-05T01:41:14.764Z,7.80
2019-05-05T01:43:45.223Z,7.80
2019-05-05T01:46:14.424Z,7.80
2019-05-05T01:48:44.519Z,7.70
2019-05-05T01:51:14.368Z,7.70
2019-05-05T01:53:44.285Z,7.70
2019-05-05T01:56:15.263Z,7.70
2019-05-05T01:58:44.165Z,7.60
2019-05-05T02:01:15.156Z,7.60
2019-05-05T02:03:44.265Z,7.60
2019-05-05T02:06:14.230Z,7.60
2019-05-05T02:08:45.285Z,7.70
2019-05-05T02:11:15.629Z,7.70
2019-05-05T02:13:45.063Z,7.70
2019-05-05T02:16:15.079Z,7.70
2019-05-05T02:18:45.033Z,7.70
2019-05-05T02:21:14.322Z,7.70
2019-05-05T02:23:45.171Z,7.70
2019-05-05T02:26:15.304Z,7.60
2019-05-05T02:28:48.932Z,7.60
2019-05-05T02:31:36.045Z,7.60
2019-05-05T02:34:05.837Z,7.50
2019-05-05T02:36:35.490Z,7.50
2019-05-05T02:39:06.724Z,7.50
2019-05-05T02:41:35.591Z,7.50
2019-05-05T02:44:05.250Z,7.50
2019-05-05T02:46:35.954Z,7.50
2019-05-05T02:49:05.587Z,7.40
2019-05-05T02:51:35.508Z,7.40
2019-05-05T02:54:05.040Z,7.40
2019-05-05T02:56:44.273Z,7.30
2019-05-05T02:59:14.916Z,7.40
2019-05-05T03:01:45.188Z,7.50
2019-05-05T03:04:14.232Z,7.50
2019-05-05T03:06:46.234Z,7.50
2019-05-05T03:09:15.499Z,7.40
2019-05-05T03:11:44.282Z,7.40
2019-05-05T03:14:14.348Z,7.40
2019-05-05T03:16:43.604Z,7.50
2019-05-05T03:19:14.266Z,7.40
2019-05-05T03:21:44.162Z,7.40
2019-05-05T03:24:14.385Z,7.20
2019-05-05T03:26:44.374Z,7.30
2019-05-05T03:29:14.791Z,7.20
2019-05-05T03:31:45.853Z,7.20
2019-05-05T03:34:16.347Z,7.20
2019-05-05T03:36:44.270Z,7.20
2019-05-05T03:39:23.899Z,7.30
2019-05-05T03:42:06.175Z,7.30
2019-05-05T03:44:39.255Z,7.20
2019-05-05T03:47:07.984Z,7.30
2019-05-05T03:49:36.808Z,7.20
2019-05-05T03:52:05.548Z,7.20
2019-05-05T03:54:34.369Z,7.20
2019-05-05T03:57:09.184Z,7.20
2019-05-05T03:59:38.950Z,7.20
2019-05-05T04:02:18.671Z,7.20
2019-05-05T04:04:48.931Z,7.10
2019-05-05T04:07:18.244Z,7.10
2019-05-05T04:09:46.986Z,7.10
2019-05-05T04:12:16.594Z,7.00
2019-05-05T04:14:45.418Z,7.10
2019-05-05T04:17:15.743Z,7.10
2019-05-05T04:19:46.223Z,7.10
2019-05-05T04:22:14.924Z,7.10
2019-05-05T04:24:43.912Z,7.10
2019-05-05T04:27:14.618Z,7.10
2019-05-05T04:29:43.994Z,7.10
2019-05-05T04:32:14.086Z,7.10
2019-05-05T04:34:43.884Z,7.20
2019-05-05T04:37:14.673Z,7.20
2019-05-05T04:39:44.337Z,7.20
2019-05-05T04:42:14.316Z,7.30
2019-05-05T04:44:44.971Z,7.30
2019-05-05T04:47:26.944Z,7.30
2019-05-05T04:50:14.929Z,7.30
2019-05-05T04:52:43.997Z,7.20
2019-05-05T04:55:13.856Z,7.30
2019-05-05T04:57:43.797Z,7.30
2019-05-05T05:00:13.730Z,7.30
2019-05-05T05:02:53.924Z,7.30
2019-05-05T05:05:29.848Z,7.40
2019-05-05T05:07:58.547Z,7.30
2019-05-05T05:10:27.267Z,7.40
2019-05-05T05:12:56.024Z,7.40
2019-05-05T05:15:24.714Z,7.40
2019-05-05T05:17:55.124Z,7.40
2019-05-05T05:20:24.672Z,7.40
2019-05-05T05:22:54.414Z,7.40
2019-05-05T05:25:23.999Z,7.40
2019-05-05T05:27:53.596Z,7.40
2019-05-05T05:30:24.245Z,7.40
2019-05-05T05:32:53.954Z,7.40
2019-05-05T05:35:24.386Z,7.50
2019-05-05T05:37:53.968Z,7.50
2019-05-05T05:40:30.979Z,7.50
2019-05-05T05:43:01.446Z,7.60
2019-05-05T05:45:49.866Z,7.70
2019-05-05T05:48:21.084Z,7.70
2019-05-05T05:50:53.552Z,7.80
2019-05-05T05:53:23.940Z,7.80
2019-05-05T05:55:53.763Z,7.90
2019-05-05T05:58:24.536Z,7.90
2019-05-05T06:00:53.979Z,8.00
2019-05-05T06:03:24.392Z,8.00
2019-05-05T06:05:54.013Z,8.10
2019-05-05T06:08:24.278Z,8.10
2019-05-05T06:10:54.698Z,8.30
2019-05-05T06:13:24.170Z,8.30
2019-05-05T06:15:53.546Z,8.40
2019-05-05T06:18:24.382Z,8.40
2019-05-05T06:20:53.702Z,8.40
2019-05-05T06:23:24.036Z,8.50
2019-05-05T06:25:55.200Z,8.40
2019-05-05T06:28:23.655Z,8.60
2019-05-05T06:30:54.459Z,8.70
2019-05-05T06:33:24.146Z,8.60
2019-05-05T06:35:53.831Z,8.80
2019-05-05T06:38:24.211Z,8.80
2019-05-05T06:40:55.110Z,8.90
2019-05-05T06:43:34.836Z,8.90
2019-05-05T06:46:14.656Z,9.00
2019-05-05T06:48:43.918Z,9.10
2019-05-05T06:51:14.069Z,9.30
2019-05-05T06:53:43.557Z,9.30
2019-05-05T06:56:14.618Z,9.40
2019-05-05T06:58:44.787Z,9.50
2019-05-05T07:01:14.344Z,9.60
2019-05-05T07:03:43.841Z,9.60
2019-05-05T07:06:14.576Z,9.60
2019-05-05T07:08:43.918Z,9.80
2019-05-05T07:11:14.538Z,9.80
2019-05-05T07:13:44.298Z,9.90
2019-05-05T07:16:14.913Z,9.80
2019-05-05T07:18:44.633Z,9.90
2019-05-05T07:21:14.375Z,10.00
2019-05-05T07:23:44.693Z,10.10
2019-05-05T07:26:14.403Z,10.20
2019-05-05T07:28:44.883Z,10.40
2019-05-05T07:31:14.330Z,10.40
2019-05-05T07:33:43.764Z,10.60
2019-05-05T07:36:16.050Z,10.80
2019-05-05T07:38:46.425Z,11.00
2019-05-05T07:41:15.158Z,11.20
2019-05-05T07:43:43.899Z,11.30
2019-05-05T07:46:13.583Z,11.30
2019-05-05T07:48:44.208Z,11.20
2019-05-05T07:51:14.201Z,11.20
2019-05-05T07:53:44.304Z,11.30
2019-05-05T07:56:14.510Z,11.30
2019-05-05T07:58:43.992Z,11.40
2019-05-05T08:01:14.167Z,11.30
2019-05-05T08:03:44.540Z,11.40
2019-05-05T08:06:14.523Z,11.50
2019-05-05T08:08:44.307Z,11.60
2019-05-05T08:11:14.794Z,11.60
2019-05-05T08:13:44.345Z,11.70
2019-05-05T08:16:17.788Z,11.50
2019-05-05T08:18:48.051Z,11.50
2019-05-05T08:21:17.961Z,11.40
2019-05-05T08:23:48.472Z,11.40
2019-05-05T08:26:25.031Z,11.50
2019-05-05T08:29:13.572Z,11.50
2019-05-05T08:31:44.282Z,11.40
2019-05-05T08:34:14.265Z,11.20
2019-05-05T08:36:44.617Z,11.20
2019-05-05T08:39:14.267Z,11.20
2019-05-05T08:41:45.395Z,11.20
2019-05-05T08:44:14.272Z,11.50
2019-05-05T08:46:44.587Z,11.60
2019-05-05T08:49:13.801Z,12.00
2019-05-05T08:51:44.301Z,12.50
2019-05-05T08:54:14.351Z,12.50
2019-05-05T08:56:44.715Z,12.40
2019-05-05T08:59:14.318Z,12.50
2019-05-05T09:01:44.941Z,12.60
2019-05-05T09:04:14.276Z,12.40
2019-05-05T09:06:43.724Z,12.20
2019-05-05T09:09:14.425Z,12.10
2019-05-05T09:11:43.903Z,12.00
2019-05-05T09:14:14.817Z,11.90
2019-05-05T09:16:44.786Z,12.10
2019-05-05T09:19:15.418Z,12.30
2019-05-05T09:21:44.852Z,12.30
2019-05-05T09:24:29.931Z,12.40
2019-05-05T09:27:03.648Z,12.60
2019-05-05T09:29:39.734Z,12.50
2019-05-05T09:32:08.458Z,12.50
2019-05-05T09:34:37.223Z,12.60
2019-05-05T09:37:05.952Z,12.70
2019-05-05T09:39:34.698Z,12.90
2019-05-05T09:42:04.123Z,13.10
2019-05-05T09:44:34.673Z,13.30
2019-05-05T09:47:04.857Z,13.10
2019-05-05T09:49:33.931Z,13.10
2019-05-05T09:52:04.793Z,13.20
2019-05-05T09:54:34.538Z,13.20
2019-05-05T09:57:04.483Z,13.10
2019-05-05T09:59:34.633Z,13.00
2019-05-05T10:02:04.505Z,13.10
2019-05-05T10:04:36.632Z,13.10
2019-05-05T10:07:05.560Z,13.10
2019-05-05T10:09:34.614Z,13.20
2019-05-05T10:12:04.747Z,13.30
2019-05-05T10:14:34.115Z,13.40
2019-05-05T10:17:04.963Z,13.50
2019-05-05T10:19:35.440Z,13.50
2019-05-05T10:22:05.130Z,13.70
2019-05-05T10:24:35.646Z,14.00
2019-05-05T10:27:05.252Z,14.20
2019-05-05T10:29:33.977Z,14.20
2019-05-05T10:32:04.627Z,14.20
2019-05-05T10:34:33.578Z,14.40
2019-05-05T10:37:04.175Z,14.60
2019-05-05T10:39:34.798Z,14.50
2019-05-05T10:42:04.067Z,14.60
2019-05-05T10:44:34.056Z,14.60
2019-05-05T10:47:04.583Z,14.60
2019-05-05T10:49:33.804Z,14.90
2019-05-05T10:52:03.718Z,14.90
2019-05-05T10:54:43.182Z,15.10
2019-05-05T10:57:03.972Z,14.80
2019-05-05T10:59:34.332Z,15.00
2019-05-05T11:02:04.981Z,14.90
2019-05-05T11:04:34.933Z,15.00
2019-05-05T11:07:04.562Z,15.00
2019-05-05T11:09:34.090Z,15.10
2019-05-05T11:12:02.871Z,15.50
2019-05-05T11:14:33.523Z,15.70
2019-05-05T11:17:03.927Z,15.90
2019-05-05T11:19:33.620Z,16.00
2019-05-05T11:22:02.499Z,16.20
2019-05-05T11:24:31.399Z,16.40
2019-05-05T11:27:00.187Z,16.60
2019-05-05T11:29:29.001Z,16.70
2019-05-05T11:31:59.303Z,16.50
2019-05-05T11:34:28.487Z,16.30
2019-05-05T11:36:59.951Z,16.60
2019-05-05T11:39:28.751Z,16.70
2019-05-05T11:41:57.498Z,16.40
2019-05-05T11:44:26.218Z,16.40
2019-05-05T11:46:55.856Z,16.10
2019-05-05T11:49:24.809Z,15.80
2019-05-05T11:51:54.350Z,15.50
2019-05-05T11:54:24.637Z,15.60
2019-05-05T11:56:54.018Z,15.80
2019-05-05T11:59:23.844Z,15.60
2019-05-05T12:01:54.880Z,15.30
2019-05-05T12:04:23.939Z,15.20
2019-05-05T12:06:53.719Z,14.90
2019-05-05T12:09:24.821Z,14.70
2019-05-05T12:11:54.534Z,14.60
2019-05-05T12:14:27.132Z,14.50
2019-05-05T12:16:55.646Z,14.40
2019-05-05T12:19:24.537Z,14.20
2019-05-05T12:21:54.862Z,14.30
2019-05-05T12:24:25.287Z,14.70
2019-05-05T12:26:58.616Z,15.10
2019-05-05T12:29:27.554Z,15.60
2019-05-05T12:31:56.279Z,15.60
2019-05-05T12:34:25.175Z,15.40
2019-05-05T12:36:54.173Z,15.30
2019-05-05T12:39:23.058Z,15.10
2019-05-05T12:41:54.105Z,14.80
2019-05-05T12:44:24.019Z,14.70
2019-05-05T12:47:14.438Z,14.50
2019-05-05T12:49:44.475Z,14.30
2019-05-05T12:52:13.880Z,14.10
2019-05-05T12:54:44.086Z,13.80
2019-05-05T12:57:13.797Z,13.60
2019-05-05T12:59:44.430Z,13.50
2019-05-05T13:02:14.277Z,13.20
2019-05-05T13:04:43.356Z,13.00
2019-05-05T13:07:13.638Z,12.80
2019-05-05T13:09:44.122Z,12.80
2019-05-05T13:12:14.871Z,12.60
2019-05-05T13:14:43.905Z,12.30
2019-05-05T13:17:14.217Z,12.20
2019-05-05T13:19:47.346Z,12.10
2019-05-05T13:22:33.822Z,12.10
2019-05-05T13:25:05.180Z,12.00
2019-05-05T13:27:35.652Z,12.00
2019-05-05T13:30:07.292Z,12.10
2019-05-05T13:32:36.069Z,12.30
2019-05-05T13:35:07.085Z,12.30
2019-05-05T13:37:35.929Z,12.30
2019-05-05T13:40:06.597Z,12.70
2019-05-05T13:42:35.322Z,13.40
2019-05-05T13:45:26.738Z,13.90
2019-05-05T13:47:55.559Z,14.60
2019-05-05T13:50:26.092Z,15.00
2019-05-05T13:52:54.850Z,15.50
2019-05-05T13:55:24.129Z,15.60
2019-05-05T13:57:54.797Z,15.80
2019-05-05T14:00:25.615Z,16.30
2019-05-05T14:02:54.698Z,15.90
2019-05-05T14:05:24.115Z,15.90
2019-05-05T14:07:53.680Z,15.60
2019-05-05T14:10:23.627Z,15.60
2019-05-05T14:12:52.551Z,15.40
2019-05-05T14:15:23.364Z,15.30
2019-05-05T14:17:54.253Z,15.00
2019-05-05T14:20:23.960Z,14.60
2019-05-05T14:22:54.342Z,14.30
2019-05-05T14:25:27.835Z,14.00
2019-05-05T14:27:56.564Z,13.80
2019-05-05T14:30:38.672Z,13.70
2019-05-05T14:33:09.061Z,13.70
2019-05-05T14:35:53.968Z,13.70
2019-05-05T14:38:39.082Z,13.60
2019-05-05T14:41:07.864Z,13.60
2019-05-05T14:43:37.596Z,13.60
2019-05-05T14:46:06.315Z,13.80
2019-05-05T14:48:37.144Z,14.40
2019-05-05T14:51:05.448Z,14.50
2019-05-05T14:53:34.833Z,15.00
2019-05-05T14:56:04.660Z,14.80
2019-05-05T14:58:33.504Z,14.70
2019-05-05T15:01:04.305Z,14.70
2019-05-05T15:03:33.669Z,14.90
2019-05-05T15:06:09.645Z,14.90
2019-05-05T15:08:55.378Z,14.90
2019-05-05T15:11:40.775Z,15.30
2019-05-05T15:14:09.565Z,15.90
2019-05-05T15:16:38.314Z,16.20
2019-05-05T15:19:07.084Z,16.40
2019-05-05T15:21:35.916Z,16.60
2019-05-05T15:24:04.762Z,17.00
2019-05-05T15:26:34.437Z,17.30
2019-05-05T15:29:03.369Z,17.60
2019-05-05T15:31:34.082Z,17.70
2019-05-05T15:34:04.148Z,17.90
2019-05-05T15:36:33.506Z,18.20
2019-05-05T15:39:04.400Z,18.10
2019-05-05T15:41:34.120Z,18.40
2019-05-05T15:44:03.740Z,18.60
2019-05-05T15:46:33.738Z,18.20
2019-05-05T15:49:04.216Z,17.80
2019-05-05T15:51:34.341Z,17.30
2019-05-05T15:54:03.900Z,16.90
2019-05-05T15:56:34.085Z,16.40
2019-05-05T15:59:03.936Z,15.80
2019-05-05T16:01:34.541Z,15.30
2019-05-05T16:04:03.701Z,14.60
2019-05-05T16:06:34.329Z,14.10
2019-05-05T16:09:04.484Z,13.90
2019-05-05T16:11:33.944Z,13.60
2019-05-05T16:14:03.923Z,13.30
2019-05-05T16:16:40.324Z,13.40
2019-05-05T16:19:14.000Z,13.40
2019-05-05T16:21:50.147Z,13.40
2019-05-05T16:24:20.585Z,13.40
2019-05-05T16:26:50.105Z,13.50
2019-05-05T16:29:19.214Z,13.40
2019-05-05T16:31:48.145Z,13.40
2019-05-05T16:34:16.920Z,13.50
2019-05-05T16:36:45.835Z,13.60
2019-05-05T16:39:16.398Z,13.70
2019-05-05T16:41:45.164Z,14.00
2019-05-05T16:44:14.117Z,14.30
2019-05-05T16:46:44.268Z,14.70
2019-05-05T16:49:14.036Z,14.90
2019-05-05T16:51:45.278Z,15.00
2019-05-05T16:54:15.584Z,14.80
2019-05-05T16:56:44.370Z,14.60
2019-05-05T16:59:13.894Z,14.50
2019-05-05T17:01:44.569Z,14.40
2019-05-05T17:04:14.238Z,14.40
2019-05-05T17:06:45.491Z,14.40
2019-05-05T17:09:14.948Z,14.30
2019-05-05T17:11:45.713Z,14.70
2019-05-05T17:14:16.100Z,14.90
2019-05-05T17:16:46.391Z,14.90
2019-05-05T17:19:25.776Z,14.90
2019-05-05T17:22:07.980Z,14.90
2019-05-05T17:24:38.834Z,14.60
2019-05-05T17:27:07.100Z,14.30
2019-05-05T17:29:35.848Z,14.00
2019-05-05T17:32:06.546Z,13.80
2019-05-05T17:34:35.310Z,13.60
2019-05-05T17:37:04.960Z,13.50
2019-05-05T17:39:35.303Z,13.40
2019-05-05T17:42:18.718Z,13.40
2019-05-05T17:44:58.950Z,13.50
2019-05-05T17:47:34.337Z,13.40
2019-05-05T17:50:08.431Z,13.50
2019-05-05T17:52:39.504Z,13.60
2019-05-05T17:55:27.798Z,13.50
2019-05-05T17:58:01.573Z,13.60
2019-05-05T18:00:29.611Z,13.70
2019-05-05T18:02:59.280Z,13.80
2019-05-05T18:05:45.766Z,13.90
2019-05-05T18:08:33.804Z,13.90
2019-05-05T18:11:03.919Z,13.90
2019-05-05T18:13:54.353Z,13.90
2019-05-05T18:16:26.932Z,13.90
2019-05-05T18:18:55.142Z,13.60
2019-05-05T18:21:24.136Z,13.40
2019-05-05T18:23:54.573Z,13.20
2019-05-05T18:26:24.321Z,13.10
2019-05-05T18:28:54.467Z,13.00
2019-05-05T18:31:24.289Z,12.90
2019-05-05T18:33:54.295Z,12.80
2019-05-05T18:36:23.507Z,12.80
2019-05-05T18:38:53.807Z,12.60
2019-05-05T18:41:44.017Z,12.60
2019-05-05T18:44:20.510Z,12.50
2019-05-05T18:46:51.114Z,12.40
2019-05-05T18:49:20.580Z,12.30
2019-05-05T18:51:49.788Z,12.30
2019-05-05T18:54:19.354Z,12.30
2019-05-05T18:56:50.378Z,12.30
2019-05-05T18:59:19.340Z,12.20
2019-05-05T19:02:03.588Z,12.20
2019-05-05T19:04:34.767Z,12.20
2019-05-05T19:07:05.144Z,12.10
2019-05-05T19:09:34.007Z,12.10
2019-05-05T19:12:10.279Z,12.00
2019-05-05T19:14:39.339Z,12.00
2019-05-05T19:17:08.147Z,12.00
2019-05-05T19:19:38.990Z,12.00
2019-05-05T19:22:13.786Z,11.90
2019-05-05T19:24:44.066Z,11.80
2019-05-05T19:27:15.347Z,11.80
2019-05-05T19:29:46.176Z,11.80
2019-05-05T19:32:15.341Z,11.70
2019-05-05T19:34:44.323Z,11.80
2019-05-05T19:37:14.006Z,11.70
2019-05-05T19:39:42.882Z,11.60
2019-05-05T19:42:11.657Z,11.60
2019-05-05T19:44:40.460Z,11.60
2019-05-05T19:47:10.862Z,11.50
2019-05-05T19:49:41.235Z,11.50
2019-05-05T19:52:09.992Z,11.50
2019-05-05T19:54:39.760Z,11.50
2019-05-05T19:57:08.510Z,11.50
2019-05-05T19:59:37.227Z,11.50
2019-05-05T20:02:07.382Z,11.50
2019-05-05T20:04:36.223Z,11.40
2019-05-05T20:07:05.815Z,11.50
2019-05-05T20:09:34.603Z,11.50
2019-05-05T20:12:04.027Z,11.50
2019-05-05T20:14:34.216Z,11.50
2019-05-05T20:17:10.521Z,11.40
2019-05-05T20:19:40.815Z,11.50
2019-05-05T20:22:09.506Z,11.50
2019-05-05T20:24:39.207Z,11.50
2019-05-05T20:27:08.078Z,11.50
2019-05-05T20:29:37.587Z,11.40
2019-05-05T20:32:06.467Z,11.50
2019-05-05T20:34:37.868Z,11.40
2019-05-05T20:37:08.135Z,11.40
2019-05-05T20:39:37.943Z,11.40
2019-05-05T20:42:07.270Z,11.30
2019-05-05T20:44:36.113Z,11.40
2019-05-05T20:47:05.207Z,11.40
2019-05-05T20:49:34.611Z,11.30
2019-05-05T20:52:03.858Z,11.30
2019-05-05T20:54:32.680Z,11.30
2019-05-05T20:57:01.515Z,11.30
2019-05-05T20:59:31.237Z,11.30
2019-05-05T21:02:01.430Z,11.30
2019-05-05T21:04:30.160Z,11.20
2019-05-05T21:07:00.104Z,11.20
2019-05-05T21:09:28.905Z,11.10
2019-05-05T21:11:57.620Z,11.10
2019-05-05T21:14:34.278Z,11.10
2019-05-05T21:16:56.753Z,11.20
2019-05-05T21:19:25.934Z,11.10
2019-05-05T21:21:56.410Z,11.10
2019-05-05T21:24:25.277Z,11.10
2019-05-05T21:26:55.560Z,11.10
2019-05-05T21:29:24.284Z,11.10
2019-05-05T21:31:54.829Z,11.00
2019-05-05T21:34:24.784Z,11.10
2019-05-05T21:36:54.143Z,11.00
2019-05-05T21:39:24.863Z,11.00
2019-05-05T21:41:53.460Z,11.00
2019-05-05T21:44:22.632Z,11.00
2019-05-05T21:46:53.681Z,11.00
2019-05-05T21:49:24.204Z,11.00
2019-05-05T21:52:00.507Z,11.00
2019-05-05T21:54:39.541Z,10.90
2019-05-05T21:57:18.875Z,11.00
2019-05-05T21:59:55.698Z,11.00
2019-05-05T22:02:18.352Z,10.90
2019-05-05T22:04:47.148Z,10.90
2019-05-05T22:07:16.038Z,10.90
2019-05-05T22:09:44.754Z,10.80
2019-05-05T22:12:13.823Z,10.80
2019-05-05T22:14:43.923Z,10.80
2019-05-05T22:17:14.632Z,10.80
2019-05-05T22:19:47.815Z,10.70
2019-05-05T22:22:18.117Z,10.80
2019-05-05T22:24:46.939Z,10.80
2019-05-05T22:27:15.735Z,10.80
2019-05-05T22:29:44.739Z,10.70
2019-05-05T22:32:14.036Z,10.70
2019-05-05T22:34:44.421Z,10.60
2019-05-05T22:37:14.271Z,10.70
2019-05-05T22:39:44.561Z,10.60
2019-05-05T22:42:13.732Z,10.50
2019-05-05T22:44:43.836Z,10.50
2019-05-05T22:47:13.896Z,10.40
2019-05-05T22:49:44.372Z,10.30
2019-05-05T22:52:14.436Z,10.20
2019-05-05T22:54:44.397Z,10.10
2019-05-05T22:57:14.029Z,10.10
2019-05-05T22:59:42.999Z,10.00
2019-05-05T23:02:11.706Z,9.90
2019-05-05T23:04:43.830Z,9.90
2019-05-05T23:07:14.404Z,9.90
2019-05-05T23:09:44.340Z,9.80
2019-05-05T23:12:13.706Z,9.80
2019-05-05T23:14:43.700Z,9.70
2019-05-05T23:17:21.214Z,9.60
2019-05-05T23:19:53.423Z,9.60
2019-05-05T23:22:27.832Z,9.50
2019-05-05T23:25:14.526Z,9.50
2019-05-05T23:27:50.093Z,9.40
2019-05-05T23:30:23.871Z,9.30
2019-05-05T23:32:54.862Z,9.30
2019-05-05T23:35:24.073Z,9.30
2019-05-05T23:37:55.306Z,9.20
2019-05-05T23:40:25.659Z,9.20
2019-05-05T23:42:54.452Z,9.20
2019-05-05T23:45:24.798Z,9.10
2019-05-05T23:47:54.417Z,9.10
2019-05-05T23:50:24.201Z,9.10
2019-05-05T23:52:54.565Z,9.00
2019-05-05T23:55:24.105Z,9.00
2019-05-05T23:57:54.573Z,9.00
